createdAt,value
2018-09-24T00:00:07.768Z,96402.00
2018-09-24T00:02:38.514Z,96410.00
2018-09-24T00:05:09.152Z,96412.00
2018-09-24T00:07:42.383Z,96415.00
2018-09-24T00:10:12.913Z,96416.00
2018-09-24T00:12:44.609Z,96419.00
2018-09-24T00:15:15.311Z,96421.00
2018-09-24T00:17:45.653Z,96431.00
2018-09-24T00:20:16.668Z,96433.00
2018-09-24T00:22:47.382Z,96432.00
2018-09-24T00:25:19.116Z,96440.00
2018-09-24T00:27:49.537Z,96446.00
2018-09-24T00:30:20.927Z,96458.00
2018-09-24T00:32:51.334Z,96463.00
2018-09-24T00:35:21.827Z,96466.00
2018-09-24T00:37:52.709Z,96473.00
2018-09-24T00:40:23.281Z,96468.00
2018-09-24T00:42:54.120Z,96485.00
2018-09-24T00:45:24.793Z,96478.00
2018-09-24T00:47:55.207Z,96479.00
2018-09-24T00:50:26.502Z,96487.00
2018-09-24T00:52:56.911Z,96497.00
2018-09-24T00:55:28.792Z,96497.00
2018-09-24T00:58:02.288Z,96510.00
2018-09-24T01:00:32.990Z,96514.00
2018-09-24T01:03:04.105Z,96518.00
2018-09-24T01:05:35.250Z,96518.00
2018-09-24T01:08:06.022Z,96516.00
2018-09-24T01:10:36.955Z,96528.00
2018-09-24T01:13:09.669Z,96528.00
2018-09-24T01:15:40.046Z,96539.00
2018-09-24T01:18:10.557Z,96525.00
2018-09-24T01:20:41.279Z,96532.00
2018-09-24T01:23:12.274Z,96536.00
2018-09-24T01:25:42.632Z,96548.00
2018-09-24T01:28:13.023Z,96535.00
2018-09-24T01:30:43.803Z,96536.00
2018-09-24T01:33:14.308Z,96538.00
2018-09-24T01:35:44.903Z,96549.00
2018-09-24T01:38:15.279Z,96558.00
2018-09-24T01:40:45.926Z,96562.00
2018-09-24T01:43:17.157Z,96560.00
2018-09-24T01:45:47.559Z,96564.00
2018-09-24T01:48:18.366Z,96569.00
2018-09-24T01:50:48.759Z,96566.00
2018-09-24T01:53:19.112Z,96566.00
2018-09-24T01:55:51.691Z,96569.00
2018-09-24T01:58:22.126Z,96564.00
2018-09-24T02:00:52.964Z,96564.00
2018-09-24T02:03:29.606Z,96579.00
2018-09-24T02:06:00.020Z,96582.00
2018-09-24T02:08:31.566Z,96584.00
2018-09-24T02:11:01.993Z,96584.00
2018-09-24T02:13:32.505Z,96589.00
2018-09-24T02:16:02.838Z,96594.00
2018-09-24T02:18:33.259Z,96586.00
2018-09-24T02:21:03.589Z,96594.00
2018-09-24T02:23:33.954Z,96595.00
2018-09-24T02:26:04.342Z,96596.00
2018-09-24T02:28:34.730Z,96592.00
2018-09-24T02:31:05.175Z,96605.00
2018-09-24T02:33:35.510Z,96599.00
2018-09-24T02:36:05.947Z,96599.00
2018-09-24T02:38:41.093Z,96603.00
2018-09-24T02:41:11.707Z,96613.00
2018-09-24T02:43:42.145Z,96618.00
2018-09-24T02:46:12.469Z,96625.00
2018-09-24T02:48:42.800Z,96619.00
2018-09-24T02:51:13.106Z,96631.00
2018-09-24T02:53:43.452Z,96638.00
2018-09-24T02:56:13.850Z,96646.00
2018-09-24T02:58:44.226Z,96643.00
2018-09-24T03:01:14.547Z,96637.00
2018-09-24T03:03:44.926Z,96635.00
2018-09-24T03:06:15.265Z,96651.00
2018-09-24T03:08:45.733Z,96654.00
2018-09-24T03:11:16.198Z,96664.00
2018-09-24T03:13:46.549Z,96656.00
2018-09-24T03:16:16.986Z,96657.00
2018-09-24T03:18:58.202Z,96653.00
2018-09-24T03:21:29.088Z,96673.00
2018-09-24T03:23:59.671Z,96649.00
2018-09-24T03:26:30.074Z,96655.00
2018-09-24T03:29:00.889Z,96665.00
2018-09-24T03:31:37.118Z,96662.00
2018-09-24T03:34:13.646Z,96659.00
2018-09-24T03:36:44.221Z,96671.00
2018-09-24T03:39:14.684Z,96669.00
2018-09-24T03:41:45.515Z,96680.00
2018-09-24T03:44:16.102Z,96683.00
2018-09-24T03:46:46.467Z,96687.00
2018-09-24T03:49:16.970Z,96685.00
2018-09-24T03:51:47.398Z,96688.00
2018-09-24T03:54:18.026Z,96692.00
2018-09-24T03:56:48.444Z,96697.00
2018-09-24T03:59:18.934Z,96688.00
2018-09-24T04:01:49.283Z,96691.00
2018-09-24T04:04:24.722Z,96695.00
2018-09-24T04:07:00.170Z,96700.00
2018-09-24T04:09:35.777Z,96707.00
2018-09-24T04:12:11.246Z,96711.00
2018-09-24T04:14:46.544Z,96710.00
2018-09-24T04:17:22.210Z,96722.00
2018-09-24T04:19:57.642Z,96715.00
2018-09-24T04:22:32.991Z,96728.00
2018-09-24T04:25:08.818Z,96735.00
2018-09-24T04:27:44.317Z,96730.00
2018-09-24T04:30:19.704Z,96743.00
2018-09-24T04:32:55.213Z,96750.00
2018-09-24T04:35:30.631Z,96751.00
2018-09-24T04:38:06.159Z,96739.00
2018-09-24T04:40:41.672Z,96746.00
2018-09-24T04:43:17.248Z,96739.00
2018-09-24T04:45:52.902Z,96761.00
2018-09-24T04:48:28.405Z,96758.00
2018-09-24T04:51:04.043Z,96760.00
2018-09-24T04:53:50.163Z,96771.00
2018-09-24T04:56:28.021Z,96772.00
2018-09-24T04:59:04.042Z,96779.00
2018-09-24T05:01:39.617Z,96788.00
2018-09-24T05:04:15.176Z,96782.00
2018-09-24T05:06:50.704Z,96790.00
2018-09-24T05:09:26.425Z,96797.00
2018-09-24T05:12:02.091Z,96799.00
2018-09-24T05:14:37.874Z,96812.00
2018-09-24T05:17:13.250Z,96836.00
2018-09-24T05:19:48.802Z,96832.00
2018-09-24T05:22:33.660Z,96837.00
2018-09-24T05:25:09.629Z,96840.00
2018-09-24T05:27:46.370Z,96846.00
2018-09-24T05:30:24.390Z,96846.00
2018-09-24T05:32:59.729Z,96848.00
2018-09-24T05:35:35.358Z,96855.00
2018-09-24T05:38:10.916Z,96868.00
2018-09-24T05:40:46.398Z,96863.00
2018-09-24T05:43:22.071Z,96862.00
2018-09-24T05:45:57.713Z,96873.00
2018-09-24T05:48:33.148Z,96877.00
2018-09-24T05:51:09.270Z,96885.00
2018-09-24T05:53:44.701Z,96886.00
2018-09-24T05:56:20.115Z,96892.00
2018-09-24T05:58:55.664Z,96900.00
2018-09-24T06:01:31.060Z,96897.00
2018-09-24T06:04:06.569Z,96911.00
2018-09-24T06:06:42.006Z,96908.00
2018-09-24T06:09:17.642Z,96923.00
2018-09-24T06:11:53.140Z,96923.00
2018-09-24T06:14:30.037Z,96936.00
2018-09-24T06:17:10.923Z,96946.00
2018-09-24T06:19:47.304Z,96955.00
2018-09-24T06:22:24.273Z,96959.00
2018-09-24T06:24:59.745Z,96958.00
2018-09-24T06:27:35.258Z,96966.00
2018-09-24T06:30:12.046Z,96966.00
2018-09-24T06:32:47.677Z,96967.00
2018-09-24T06:35:23.687Z,97005.00
2018-09-24T06:37:59.267Z,96982.00
2018-09-24T06:40:35.205Z,96983.00
2018-09-24T06:43:10.848Z,96989.00
2018-09-24T06:45:46.273Z,97005.00
2018-09-24T06:48:22.281Z,97007.00
2018-09-24T06:50:57.782Z,97009.00
2018-09-24T06:53:33.299Z,97014.00
2018-09-24T06:56:09.791Z,97015.00
2018-09-24T06:58:50.461Z,97016.00
2018-09-24T07:01:28.941Z,97019.00
2018-09-24T07:04:04.941Z,97020.00
2018-09-24T07:06:40.468Z,97024.00
2018-09-24T07:09:16.980Z,97033.00
2018-09-24T07:11:52.569Z,97028.00
2018-09-24T07:14:28.167Z,97044.00
2018-09-24T07:17:03.822Z,97052.00
2018-09-24T07:19:39.681Z,97045.00
2018-09-24T07:22:15.326Z,97061.00
2018-09-24T07:24:51.033Z,97062.00
2018-09-24T07:27:26.450Z,97077.00
2018-09-24T07:30:01.994Z,97073.00
2018-09-24T07:32:37.570Z,97091.00
2018-09-24T07:35:13.090Z,97092.00
2018-09-24T07:37:48.758Z,97091.00
2018-09-24T07:40:24.466Z,97083.00
2018-09-24T07:43:00.345Z,97091.00
2018-09-24T07:45:36.434Z,97096.00
2018-09-24T07:48:11.912Z,97094.00
2018-09-24T07:50:47.474Z,97104.00
2018-09-24T07:53:23.165Z,97105.00
2018-09-24T07:55:59.131Z,97109.00
2018-09-24T07:58:34.442Z,97103.00
2018-09-24T08:01:10.002Z,97121.00
2018-09-24T08:03:45.382Z,97111.00
2018-09-24T08:06:20.922Z,97114.00
2018-09-24T08:08:56.461Z,97106.00
2018-09-24T08:11:32.055Z,97127.00
2018-09-24T08:14:11.490Z,97116.00
2018-09-24T08:16:47.054Z,97120.00
2018-09-24T08:19:23.258Z,97131.00
2018-09-24T08:21:58.731Z,97127.00
2018-09-24T08:24:34.593Z,97131.00
2018-09-24T08:27:16.365Z,97131.00
2018-09-24T08:29:52.016Z,97142.00
2018-09-24T08:32:27.930Z,97134.00
2018-09-24T08:35:03.443Z,97145.00
2018-09-24T08:37:39.158Z,97139.00
2018-09-24T08:40:16.089Z,97136.00
2018-09-24T08:42:53.323Z,97142.00
2018-09-24T08:45:29.024Z,97147.00
2018-09-24T08:48:04.673Z,97157.00
2018-09-24T08:50:42.616Z,97155.00
2018-09-24T08:53:18.456Z,97154.00
2018-09-24T08:55:54.057Z,97166.00
2018-09-24T08:58:29.873Z,97167.00
2018-09-24T09:01:05.721Z,97180.00
2018-09-24T09:03:51.602Z,97181.00
2018-09-24T09:06:27.308Z,97175.00
2018-09-24T09:09:02.811Z,97166.00
2018-09-24T09:11:38.290Z,97175.00
2018-09-24T09:14:16.330Z,97167.00
2018-09-24T09:16:51.929Z,97160.00
2018-09-24T09:19:27.738Z,97169.00
2018-09-24T09:22:04.089Z,97174.00
2018-09-24T09:24:39.649Z,97177.00
2018-09-24T09:27:15.401Z,97179.00
2018-09-24T09:29:50.823Z,97188.00
2018-09-24T09:32:26.402Z,97183.00
2018-09-24T09:35:01.948Z,97190.00
2018-09-24T09:37:37.914Z,97189.00
2018-09-24T09:40:13.321Z,97192.00
2018-09-24T09:42:48.929Z,97194.00
2018-09-24T09:45:24.435Z,97187.00
2018-09-24T09:48:00.137Z,97197.00
2018-09-24T09:50:35.665Z,97187.00
2018-09-24T09:53:11.771Z,97200.00
2018-09-24T09:55:47.344Z,97199.00
2018-09-24T09:58:23.715Z,97221.00
2018-09-24T10:00:59.638Z,97211.00
2018-09-24T10:03:35.266Z,97187.00
2018-09-24T10:06:10.838Z,97200.00
2018-09-24T10:08:46.506Z,97191.00
2018-09-24T10:11:22.307Z,97193.00
2018-09-24T10:13:58.097Z,97186.00
2018-09-24T10:16:33.429Z,97191.00
2018-09-24T10:19:09.009Z,97206.00
2018-09-24T10:21:44.606Z,97212.00
2018-09-24T10:24:21.046Z,97214.00
2018-09-24T10:26:56.761Z,97198.00
2018-09-24T10:29:32.433Z,97201.00
2018-09-24T10:32:08.068Z,97199.00
2018-09-24T10:34:43.615Z,97192.00
2018-09-24T10:37:18.925Z,97180.00
2018-09-24T10:39:54.440Z,97098.00
2018-09-24T10:42:31.378Z,97185.00
2018-09-24T10:45:14.115Z,97177.00
2018-09-24T10:47:49.933Z,97182.00
2018-09-24T10:50:25.513Z,97188.00
2018-09-24T10:53:01.332Z,97191.00
2018-09-24T10:55:38.046Z,97178.00
2018-09-24T10:58:14.258Z,97191.00
2018-09-24T11:00:50.627Z,97187.00
2018-09-24T11:03:26.379Z,97191.00
2018-09-24T11:06:02.890Z,97192.00
2018-09-24T11:08:38.934Z,97195.00
2018-09-24T11:11:15.312Z,97206.00
2018-09-24T11:13:53.610Z,97201.00
2018-09-24T11:16:29.857Z,97202.00
2018-09-24T11:19:05.639Z,97200.00
2018-09-24T11:21:41.534Z,97204.00
2018-09-24T11:24:17.838Z,97200.00
2018-09-24T11:26:54.401Z,97209.00
2018-09-24T11:29:30.565Z,97201.00
2018-09-24T11:32:06.414Z,97204.00
2018-09-24T11:34:42.892Z,97197.00
2018-09-24T11:37:23.008Z,97201.00
2018-09-24T11:39:58.947Z,97204.00
2018-09-24T11:42:34.620Z,97190.00
2018-09-24T11:45:10.809Z,97192.00
2018-09-24T11:47:46.311Z,97190.00
2018-09-24T11:50:22.390Z,97189.00
2018-09-24T11:53:02.233Z,97175.00
2018-09-24T11:55:38.325Z,97188.00
2018-09-24T11:58:14.233Z,97194.00
2018-09-24T12:00:50.441Z,97181.00
2018-09-24T12:03:26.311Z,97181.00
2018-09-24T12:06:02.536Z,97174.00
2018-09-24T12:08:40.069Z,97185.00
2018-09-24T12:11:16.014Z,97176.00
2018-09-24T12:13:58.662Z,97172.00
2018-09-24T12:16:54.279Z,97173.00
2018-09-24T12:19:48.521Z,97162.00
2018-09-24T12:22:25.654Z,97168.00
2018-09-24T12:25:02.332Z,97173.00
2018-09-24T12:27:39.002Z,97182.00
2018-09-24T12:30:17.684Z,97176.00
2018-09-24T12:32:54.744Z,97167.00
2018-09-24T12:35:31.712Z,97185.00
2018-09-24T12:38:17.197Z,97177.00
2018-09-24T12:41:03.477Z,97187.00
2018-09-24T12:43:42.667Z,97175.00
2018-09-24T12:46:19.499Z,97183.00
2018-09-24T12:48:56.961Z,97178.00
2018-09-24T12:51:32.941Z,97178.00
2018-09-24T12:54:09.308Z,97178.00
2018-09-24T12:56:55.600Z,97186.00
2018-09-24T12:59:41.138Z,97189.00
2018-09-24T13:02:17.614Z,97196.00
2018-09-24T13:04:53.440Z,97202.00
2018-09-24T13:07:30.330Z,97193.00
2018-09-24T13:10:06.110Z,97183.00
2018-09-24T13:12:41.993Z,97183.00
2018-09-24T13:15:17.850Z,97172.00
2018-09-24T13:17:54.393Z,97176.00
2018-09-24T13:20:30.241Z,97169.00
2018-09-24T13:23:05.954Z,97196.00
2018-09-24T13:25:43.490Z,97181.00
2018-09-24T13:28:21.734Z,97180.00
2018-09-24T13:31:02.500Z,97188.00
2018-09-24T13:33:40.678Z,97192.00
2018-09-24T13:36:16.297Z,97203.00
2018-09-24T13:38:52.355Z,97210.00
2018-09-24T13:41:28.972Z,97203.00
2018-09-24T13:44:05.136Z,97201.00
2018-09-24T13:46:41.159Z,97201.00
2018-09-24T13:49:17.427Z,97202.00
2018-09-24T13:51:53.026Z,97212.00
2018-09-24T13:54:28.856Z,97210.00
2018-09-24T13:57:07.807Z,97203.00
2018-09-24T13:59:44.671Z,97201.00
2018-09-24T14:02:23.599Z,97207.00
2018-09-24T14:04:59.776Z,97210.00
2018-09-24T14:07:35.725Z,97210.00
2018-09-24T14:10:11.607Z,97203.00
2018-09-24T14:12:47.190Z,97191.00
2018-09-24T14:15:22.982Z,97188.00
2018-09-24T14:17:59.021Z,97183.00
2018-09-24T14:20:37.685Z,97183.00
2018-09-24T14:23:15.214Z,97185.00
2018-09-24T14:25:51.516Z,97181.00
2018-09-24T14:28:27.101Z,97181.00
2018-09-24T14:31:03.031Z,97178.00
2018-09-24T14:33:39.130Z,97174.00
2018-09-24T14:36:16.048Z,97179.00
2018-09-24T14:38:53.382Z,97184.00
2018-09-24T14:41:30.806Z,97186.00
2018-09-24T14:44:08.501Z,97189.00
2018-09-24T14:46:44.373Z,97193.00
2018-09-24T14:49:19.928Z,97182.00
2018-09-24T14:51:55.645Z,97187.00
2018-09-24T14:54:32.512Z,97184.00
2018-09-24T14:57:10.751Z,97186.00
2018-09-24T14:59:46.576Z,97187.00
2018-09-24T15:02:29.049Z,97187.00
2018-09-24T15:05:09.981Z,97186.00
2018-09-24T15:07:49.964Z,97191.00
2018-09-24T15:10:28.786Z,97191.00
2018-09-24T15:13:06.509Z,97191.00
2018-09-24T15:15:53.826Z,97200.00
2018-09-24T15:18:35.095Z,97188.00
2018-09-24T15:21:14.444Z,97195.00
2018-09-24T15:24:05.360Z,97196.00
2018-09-24T15:26:59.832Z,97202.00
2018-09-24T15:29:38.442Z,97203.00
2018-09-24T15:32:16.393Z,97201.00
2018-09-24T15:35:07.444Z,97198.00
2018-09-24T15:37:49.722Z,97201.00
2018-09-24T15:40:31.900Z,97191.00
2018-09-24T15:43:34.606Z,97195.00
2018-09-24T15:46:16.764Z,97188.00
2018-09-24T15:49:00.597Z,97183.00
2018-09-24T15:51:38.902Z,97186.00
2018-09-24T15:54:17.057Z,97195.00
2018-09-24T15:56:58.770Z,97188.00
2018-09-24T15:59:35.286Z,97190.00
2018-09-24T16:02:14.950Z,97223.00
2018-09-24T16:04:52.737Z,97192.00
2018-09-24T16:07:30.562Z,97204.00
2018-09-24T16:10:09.352Z,97202.00
2018-09-24T16:12:45.441Z,97212.00
2018-09-24T16:15:29.180Z,97219.00
2018-09-24T16:18:05.518Z,97218.00
2018-09-24T16:20:43.542Z,97215.00
2018-09-24T16:23:25.422Z,97216.00
2018-09-24T16:26:04.024Z,97221.00
2018-09-24T16:28:42.579Z,97228.00
2018-09-24T16:31:19.163Z,97217.00
2018-09-24T16:34:03.365Z,97221.00
2018-09-24T16:36:42.364Z,97222.00
2018-09-24T16:39:20.959Z,97225.00
2018-09-24T16:42:11.495Z,97232.00
2018-09-24T16:44:48.702Z,97239.00
2018-09-24T16:47:25.092Z,97233.00
2018-09-24T16:50:05.155Z,97235.00
2018-09-24T16:52:49.276Z,97169.00
2018-09-24T16:55:26.424Z,97236.00
2018-09-24T16:58:06.300Z,97240.00
2018-09-24T17:00:42.448Z,97242.00
2018-09-24T17:03:28.799Z,97264.00
2018-09-24T17:06:05.028Z,97247.00
2018-09-24T17:08:41.572Z,97249.00
2018-09-24T17:11:17.693Z,97265.00
2018-09-24T17:13:53.377Z,97255.00
2018-09-24T17:16:29.248Z,97256.00
2018-09-24T17:19:09.581Z,97259.00
2018-09-24T17:21:46.911Z,96580.00
2018-09-24T17:24:23.752Z,97267.00
2018-09-24T17:27:01.391Z,97281.00
2018-09-24T17:29:38.200Z,97288.00
2018-09-24T17:32:15.752Z,97287.00
2018-09-24T17:34:51.707Z,97293.00
2018-09-24T17:37:27.815Z,97294.00
2018-09-24T17:40:03.950Z,97305.00
2018-09-24T17:42:40.679Z,97306.00
2018-09-24T17:45:17.956Z,97297.00
2018-09-24T17:47:53.964Z,97303.00
2018-09-24T17:50:29.675Z,97306.00
2018-09-24T17:53:05.242Z,97315.00
2018-09-24T17:55:41.151Z,97310.00
2018-09-24T17:58:18.054Z,97320.00
2018-09-24T18:00:53.998Z,97311.00
2018-09-24T18:03:29.461Z,97315.00
2018-09-24T18:06:05.190Z,97316.00
2018-09-24T18:08:41.442Z,97314.00
2018-09-24T18:11:17.669Z,97319.00
2018-09-24T18:13:53.621Z,97323.00
2018-09-24T18:16:29.195Z,97344.00
2018-09-24T18:19:04.855Z,97341.00
2018-09-24T18:21:41.258Z,97271.00
2018-09-24T18:24:34.037Z,97347.00
2018-09-24T18:27:10.387Z,97342.00
2018-09-24T18:29:48.361Z,97352.00
2018-09-24T18:32:25.629Z,97359.00
2018-09-24T18:35:04.477Z,97361.00
2018-09-24T18:37:41.705Z,97364.00
2018-09-24T18:40:19.576Z,97369.00
2018-09-24T18:42:57.089Z,97366.00
2018-09-24T18:45:35.591Z,97370.00
2018-09-24T18:48:14.194Z,97373.00
2018-09-24T18:50:52.967Z,97374.00
2018-09-24T18:53:30.359Z,97373.00
2018-09-24T18:56:23.304Z,97376.00
2018-09-24T18:59:03.421Z,97383.00
2018-09-24T19:01:42.039Z,97392.00
2018-09-24T19:04:19.209Z,97385.00
2018-09-24T19:06:57.101Z,97381.00
2018-09-24T19:09:33.680Z,97385.00
2018-09-24T19:12:10.158Z,97383.00
2018-09-24T19:14:46.581Z,97380.00
2018-09-24T19:17:27.642Z,97392.00
2018-09-24T19:20:03.168Z,97388.00
2018-09-24T19:22:39.522Z,97379.00
2018-09-24T19:25:16.273Z,97393.00
2018-09-24T19:27:54.191Z,97399.00
2018-09-24T19:30:31.877Z,97387.00
2018-09-24T19:33:14.567Z,97392.00
2018-09-24T19:35:53.162Z,97392.00
2018-09-24T19:38:29.291Z,97390.00
2018-09-24T19:41:08.501Z,97385.00
2018-09-24T19:43:48.439Z,97388.00
2018-09-24T20:07:41.872Z,97399.00
2018-09-24T20:10:18.904Z,97402.00
2018-09-24T20:12:55.282Z,97407.00
2018-09-24T20:15:32.609Z,97403.00
2018-09-24T20:18:09.409Z,97408.00
2018-09-24T20:20:45.752Z,97408.00
2018-09-24T20:23:22.492Z,97414.00
2018-09-24T20:25:59.143Z,97417.00
2018-09-24T20:28:37.496Z,97416.00
2018-09-24T20:31:13.667Z,97426.00
2018-09-24T20:33:51.974Z,97425.00
2018-09-24T20:36:28.569Z,97423.00
2018-09-24T20:39:04.311Z,97428.00
2018-09-24T20:41:42.316Z,97428.00
